Time;durP1;ratioP1;P1;durP2;ratioP2;P2;SDS_P1;SDS_P2;PMS_P1;PMS_P2;Temp;Humidity;BMP_temperature;BMP_pressure;BME280_temperature;BME280_humidity;BME280_pressure;Samples;Min_cycle;Max_cycle;Signal;HPM_P1;HPM_P2
2020/12/30 00:01:31;;;;;;;2.15;0.60;;;2.50;99.90;;;;;;5033100;28;20085;-74
2020/12/30 00:03:56;;;;;;;1.48;0.98;;;2.50;99.90;;;;;;5044622;28;20450;-75
2020/12/30 00:06:22;;;;;;;2.03;0.90;;;2.50;99.90;;;;;;5045330;28;20140;-74
2020/12/30 00:08:48;;;;;;;1.58;0.90;;;2.50;99.90;;;;;;5045517;28;20162;-74
2020/12/30 00:11:16;;;;;;;1.45;0.82;;;2.60;99.90;;;;;;5041095;28;20086;-75
2020/12/30 00:13:42;;;;;;;1.15;0.82;;;2.70;99.90;;;;;;5046658;28;20101;-74
2020/12/30 00:16:08;;;;;;;2.05;0.82;;;2.60;99.90;;;;;;5048165;28;20095;-73
2020/12/30 00:18:33;;;;;;;1.52;0.70;;;2.40;99.90;;;;;;5047192;28;20089;-73
2020/12/30 00:20:59;;;;;;;2.50;1.25;;;2.30;99.90;;;;;;5037923;28;20085;-73
2020/12/30 00:23:24;;;;;;;2.88;1.30;;;2.30;99.90;;;;;;5041017;28;20105;-73
2020/12/30 00:25:50;;;;;;;4.38;2.03;;;2.10;99.90;;;;;;5034364;28;20097;-75
2020/12/30 00:28:16;;;;;;;2.53;1.35;;;1.80;99.90;;;;;;5038172;28;20084;-75
2020/12/30 00:30:42;;;;;;;3.10;1.40;;;1.70;99.90;;;;;;5035770;28;20089;-73
2020/12/30 00:33:07;;;;;;;2.88;1.45;;;1.70;99.90;;;;;;5042061;28;20081;-73
2020/12/30 00:35:33;;;;;;;4.55;2.22;;;1.60;99.90;;;;;;5039945;28;20100;-76
2020/12/30 00:37:58;;;;;;;2.45;1.65;;;1.40;99.90;;;;;;5033641;28;20089;-75
2020/12/30 00:40:24;;;;;;;3.40;2.30;;;1.30;99.90;;;;;;5042166;28;20200;-72
2020/12/30 00:42:49;;;;;;;3.40;2.15;;;1.20;99.90;;;;;;5040512;28;20089;-75
2020/12/30 00:45:15;;;;;;;5.55;2.17;;;1.40;99.90;;;;;;5039608;28;20097;-73
2020/12/30 00:47:41;;;;;;;2.75;2.08;;;1.30;99.90;;;;;;5036937;28;20097;-73
2020/12/30 00:50:07;;;;;;;3.83;2.08;;;1.50;99.90;;;;;;5039191;28;20074;-72
2020/12/30 00:52:33;;;;;;;3.97;2.20;;;1.50;99.90;;;;;;5030525;28;20132;-74
2020/12/30 00:54:58;;;;;;;2.33;1.88;;;1.60;99.90;;;;;;5029731;28;20116;-74
2020/12/30 00:57:24;;;;;;;5.75;3.10;;;1.60;99.90;;;;;;5030458;28;20535;-74
2020/12/30 00:59:50;;;;;;;3.08;1.77;;;1.70;99.90;;;;;;5054202;28;20172;-74
2020/12/30 01:02:15;;;;;;;3.10;1.40;;;1.90;99.90;;;;;;5048991;28;20591;-75
2020/12/30 01:04:42;;;;;;;4.57;1.83;;;2.00;99.90;;;;;;5049922;28;20129;-73
2020/12/30 01:07:07;;;;;;;2.55;1.58;;;2.20;99.90;;;;;;5049523;28;20648;-73
2020/12/30 01:09:33;;;;;;;4.57;1.90;;;2.20;99.90;;;;;;5048574;28;20160;-75
2020/12/30 01:12:01;;;;;;;3.22;1.80;;;2.30;99.90;;;;;;5049989;28;20069;-74
2020/12/30 01:14:27;;;;;;;3.15;1.73;;;2.20;99.90;;;;;;5048993;28;20130;-73
2020/12/30 01:16:53;;;;;;;2.72;1.58;;;2.10;99.90;;;;;;5050196;28;20085;-76
2020/12/30 01:19:20;;;;;;;2.35;1.50;;;1.90;99.90;;;;;;5050192;28;20078;-72
2020/12/30 01:21:45;;;;;;;2.60;1.63;;;1.80;99.90;;;;;;5050158;28;20207;-73
2020/12/30 01:24:11;;;;;;;1.88;1.52;;;1.90;99.90;;;;;;5048666;28;20581;-73
2020/12/30 01:26:40;;;;;;;4.22;2.03;;;1.90;99.90;;;;;;5049802;28;20080;-73
2020/12/30 01:29:07;;;;;;;2.83;1.83;;;1.90;99.90;;;;;;5049981;28;20073;-74
2020/12/30 01:31:34;;;;;;;3.72;1.80;;;2.00;99.90;;;;;;5033171;28;20183;-74
2020/12/30 01:34:01;;;;;;;4.13;1.90;;;2.00;99.90;;;;;;5034379;28;20439;-74
2020/12/30 01:36:26;;;;;;;2.40;1.55;;;2.00;99.90;;;;;;5039299;28;20082;-73
2020/12/30 01:38:53;;;;;;;2.60;1.75;;;2.10;99.90;;;;;;5042562;28;20077;-76
2020/12/30 01:41:20;;;;;;;3.90;2.28;;;2.10;99.90;;;;;;5034579;28;20082;-73
2020/12/30 01:44:07;;;;;;;2.38;1.70;;;1.90;99.90;;;;;;5036261;28;20148;-73
2020/12/30 01:46:40;;;;;;;3.40;1.50;;;1.90;99.90;;;;;;5037555;28;20084;-72
2020/12/30 01:49:11;;;;;;;2.35;1.40;;;1.90;99.90;;;;;;5034264;28;20168;-74
2020/12/30 01:51:39;;;;;;;2.47;1.42;;;1.90;99.90;;;;;;5038079;28;20074;-74
2020/12/30 01:54:06;;;;;;;3.00;1.70;;;1.90;99.90;;;;;;5028724;28;20097;-73
2020/12/30 01:56:32;;;;;;;1.60;0.95;;;1.80;99.90;;;;;;5032412;28;20573;-74
2020/12/30 01:59:00;;;;;;;2.13;1.38;;;1.80;99.90;;;;;;5029981;28;20078;-73
2020/12/30 02:01:28;;;;;;;1.63;1.40;;;1.80;99.90;;;;;;5031625;28;20073;-74
2020/12/30 02:03:58;;;;;;;2.25;1.20;;;1.70;99.90;;;;;;5033474;28;20113;-72
2020/12/30 02:06:25;;;;;;;3.20;1.50;;;1.60;99.90;;;;;;5031755;28;20117;-73
2020/12/30 02:08:51;;;;;;;2.92;1.30;;;1.50;99.90;;;;;;5024857;28;20092;-73
2020/12/30 02:11:20;;;;;;;4.28;1.50;;;1.40;99.90;;;;;;5028546;28;20128;-74
2020/12/30 02:13:46;;;;;;;2.45;1.45;;;1.40;99.90;;;;;;5031950;28;20149;-73
2020/12/30 02:16:11;;;;;;;2.90;1.40;;;1.50;99.90;;;;;;5030197;28;20469;-73
2020/12/30 02:18:37;;;;;;;2.53;1.48;;;1.50;99.90;;;;;;5027453;28;20181;-73
2020/12/30 02:21:02;;;;;;;2.58;1.52;;;1.40;99.90;;;;;;5033467;28;20144;-72
2020/12/30 02:23:29;;;;;;;2.00;1.35;;;1.10;99.90;;;;;;5031773;28;20540;-73
2020/12/30 02:25:55;;;;;;;4.07;1.77;;;1.00;99.90;;;;;;5029841;28;20200;-73
2020/12/30 02:28:21;;;;;;;2.67;1.50;;;0.90;99.90;;;;;;5028898;28;20156;-73
2020/12/30 02:30:46;;;;;;;2.38;1.30;;;1.00;99.90;;;;;;5027293;28;20530;-73
2020/12/30 02:33:12;;;;;;;1.27;0.90;;;1.10;99.90;;;;;;5027354;28;20176;-73
2020/12/30 02:35:37;;;;;;;2.88;1.90;;;1.00;99.90;;;;;;5026974;28;20077;-73
2020/12/30 02:38:03;;;;;;;3.70;1.60;;;0.80;99.90;;;;;;5027903;28;20082;-73
2020/12/30 02:40:28;;;;;;;2.60;1.40;;;0.80;99.90;;;;;;5040887;28;20078;-74
2020/12/30 02:42:54;;;;;;;2.03;1.58;;;0.80;99.90;;;;;;5032789;28;20089;-72
2020/12/30 02:45:20;;;;;;;1.60;1.50;;;0.80;99.90;;;;;;5030560;28;20108;-73
2020/12/30 02:47:45;;;;;;;2.22;1.33;;;0.90;99.90;;;;;;5029566;28;20086;-73
2020/12/30 02:50:11;;;;;;;2.67;1.50;;;0.90;99.90;;;;;;5029133;28;20466;-73
2020/12/30 02:52:36;;;;;;;2.15;1.50;;;0.70;99.90;;;;;;5030833;28;20558;-73
2020/12/30 02:55:02;;;;;;;2.08;1.50;;;0.80;99.90;;;;;;5033955;28;20613;-73
2020/12/30 02:57:28;;;;;;;2.30;1.67;;;0.90;99.90;;;;;;5029775;28;20086;-73
2020/12/30 02:59:56;;;;;;;2.95;1.65;;;1.00;99.90;;;;;;5028322;28;20107;-73
2020/12/30 03:02:26;;;;;;;3.20;1.55;;;0.80;99.90;;;;;;5027651;28;20164;-73
2020/12/30 03:04:52;;;;;;;2.13;1.38;;;0.80;99.90;;;;;;5027259;28;20098;-73
2020/12/30 03:07:19;;;;;;;3.47;1.63;;;0.90;99.90;;;;;;5033219;28;20082;-72
2020/12/30 03:09:45;;;;;;;1.73;1.27;;;0.90;99.90;;;;;;5034336;28;20879;-73
2020/12/30 03:12:11;;;;;;;1.83;1.25;;;0.80;99.90;;;;;;5037342;28;20548;-74
2020/12/30 03:14:37;;;;;;;2.60;1.27;;;0.70;99.90;;;;;;5027967;28;20474;-73
2020/12/30 03:17:02;;;;;;;2.58;1.10;;;0.90;99.90;;;;;;5031664;28;20173;-73
2020/12/30 03:19:28;;;;;;;2.90;1.75;;;1.10;99.90;;;;;;5028198;28;20082;-73
2020/12/30 03:21:55;;;;;;;1.95;1.17;;;0.90;99.90;;;;;;5028610;28;20085;-73
2020/12/30 03:24:21;;;;;;;2.33;1.50;;;0.80;99.90;;;;;;5033025;28;20101;-72
2020/12/30 03:26:46;;;;;;;1.35;1.23;;;0.80;99.90;;;;;;5038107;28;20092;-73
2020/12/30 03:29:12;;;;;;;2.53;1.20;;;0.70;99.90;;;;;;5027072;28;20610;-73
2020/12/30 03:31:38;;;;;;;1.77;1.13;;;0.80;99.90;;;;;;5030416;28;20074;-73
2020/12/30 03:34:04;;;;;;;2.05;1.20;;;0.80;99.90;;;;;;5027242;28;20098;-73
2020/12/30 03:36:29;;;;;;;1.50;0.98;;;0.90;99.90;;;;;;5028092;28;20092;-73
2020/12/30 03:38:55;;;;;;;1.73;1.00;;;0.80;99.90;;;;;;5032933;28;20093;-72
2020/12/30 03:41:20;;;;;;;2.90;1.30;;;1.00;99.90;;;;;;5049616;28;20138;-73
2020/12/30 03:43:46;;;;;;;2.80;1.40;;;1.00;99.90;;;;;;5038118;28;20098;-72
2020/12/30 03:46:11;;;;;;;2.10;1.30;;;0.80;99.90;;;;;;5035012;28;20596;-73
2020/12/30 03:48:37;;;;;;;1.50;1.20;;;0.80;99.90;;;;;;5040880;28;20086;-73
2020/12/30 03:51:02;;;;;;;1.70;0.93;;;0.90;99.90;;;;;;5035898;28;20084;-73
2020/12/30 03:53:28;;;;;;;2.03;1.13;;;0.90;99.90;;;;;;5049596;28;20097;-73
2020/12/30 03:55:54;;;;;;;3.05;1.45;;;1.00;99.90;;;;;;5029901;28;20120;-73
2020/12/30 03:58:20;;;;;;;1.42;1.02;;;0.90;99.90;;;;;;5035035;28;20082;-72
2020/12/30 04:00:45;;;;;;;1.33;0.93;;;0.80;99.90;;;;;;5031530;28;20699;-73
2020/12/30 04:03:11;;;;;;;1.52;1.30;;;0.90;99.90;;;;;;5031520;28;20092;-73
2020/12/30 04:05:37;;;;;;;1.27;0.95;;;0.90;99.90;;;;;;5037302;28;20105;-73
2020/12/30 04:08:02;;;;;;;3.90;1.15;;;0.80;99.90;;;;;;5031516;28;20691;-73
2020/12/30 04:10:28;;;;;;;2.03;1.17;;;0.90;99.90;;;;;;5030050;28;20078;-73
2020/12/30 04:12:54;;;;;;;2.38;0.98;;;0.90;99.90;;;;;;5027362;28;20078;-73
2020/12/30 04:15:19;;;;;;;1.65;0.90;;;0.90;99.90;;;;;;5042356;28;20098;-73
2020/12/30 04:17:45;;;;;;;1.83;1.33;;;1.20;99.90;;;;;;5033741;28;20081;-73
2020/12/30 04:20:10;;;;;;;1.02;0.70;;;1.20;99.90;;;;;;5031356;28;20478;-72
2020/12/30 04:22:36;;;;;;;2.28;0.90;;;1.10;99.90;;;;;;5033012;28;20093;-73
2020/12/30 04:25:02;;;;;;;1.42;0.80;;;1.00;99.90;;;;;;5037713;28;20611;-73
2020/12/30 04:27:28;;;;;;;1.17;1.00;;;0.80;99.90;;;;;;5035039;28;20140;-73
2020/12/30 04:29:53;;;;;;;1.05;0.80;;;0.70;99.90;;;;;;5031709;28;20074;-73
2020/12/30 04:32:19;;;;;;;1.13;0.68;;;0.80;99.90;;;;;;5035700;28;20165;-73
2020/12/30 04:34:45;;;;;;;0.63;0.57;;;0.90;99.90;;;;;;5032470;28;20097;-73
2020/12/30 04:37:15;;;;;;;1.20;0.70;;;1.00;99.90;;;;;;5035528;28;20110;-73
2020/12/30 04:39:41;;;;;;;1.00;0.82;;;1.30;99.90;;;;;;5030551;28;20092;-73
2020/12/30 04:42:08;;;;;;;1.30;0.90;;;1.10;99.90;;;;;;5030795;28;20546;-74
2020/12/30 04:44:36;;;;;;;0.98;0.80;;;1.10;99.90;;;;;;5029247;28;20104;-74
2020/12/30 04:47:03;;;;;;;1.88;0.70;;;1.20;99.90;;;;;;5037824;28;20118;-74
2020/12/30 04:49:29;;;;;;;1.48;0.90;;;1.00;99.90;;;;;;5031862;28;20085;-74
2020/12/30 04:51:55;;;;;;;1.23;0.80;;;1.00;99.90;;;;;;5029508;28;20101;-73
2020/12/30 04:54:21;;;;;;;1.58;1.23;;;1.00;99.90;;;;;;5028451;28;20439;-74
2020/12/30 04:56:57;;;;;;;1.77;1.13;;;0.90;99.90;;;;;;5036144;28;20201;-73
2020/12/30 04:59:26;;;;;;;1.80;1.10;;;0.60;99.90;;;;;;5037124;28;20081;-75
2020/12/30 05:02:07;;;;;;;1.55;0.90;;;0.20;99.90;;;;;;5035887;28;20078;-73
2020/12/30 05:04:34;;;;;;;0.88;0.65;;;0.40;99.90;;;;;;5057637;28;20227;-73
2020/12/30 05:07:09;;;;;;;2.10;0.90;;;0.20;99.90;;;;;;5036578;28;20553;-74
2020/12/30 05:09:40;;;;;;;0.80;0.50;;;-0.10;99.90;;;;;;5033871;28;20100;-73
2020/12/30 05:12:17;;;;;;;0.57;0.57;;;-0.10;99.90;;;;;;5040469;28;20223;-74
2020/12/30 05:14:43;;;;;;;1.23;0.52;;;-0.20;99.90;;;;;;5038431;28;20113;-73
2020/12/30 05:17:11;;;;;;;1.25;0.60;;;-0.10;99.90;;;;;;5035558;28;20164;-72
2020/12/30 05:19:37;;;;;;;0.65;0.65;;;0.20;99.90;;;;;;5035917;28;20144;-73
2020/12/30 05:22:03;;;;;;;0.80;0.50;;;0.50;99.90;;;;;;5042420;28;20096;-73
2020/12/30 05:24:30;;;;;;;0.82;0.50;;;0.60;99.90;;;;;;5039127;28;20114;-74
2020/12/30 05:26:57;;;;;;;2.92;0.60;;;0.60;99.90;;;;;;5033235;28;20085;-74
2020/12/30 05:29:24;;;;;;;0.90;0.50;;;0.70;99.90;;;;;;5033869;28;20081;-74
2020/12/30 05:31:51;;;;;;;1.15;0.75;;;0.70;99.90;;;;;;5034712;28;20776;-73
2020/12/30 05:34:19;;;;;;;1.35;0.77;;;0.70;99.90;;;;;;5037905;28;20085;-73
2020/12/30 05:36:46;;;;;;;0.43;0.40;;;0.70;99.90;;;;;;5034631;28;20078;-73
2020/12/30 05:39:19;;;;;;;1.35;0.60;;;0.70;99.90;;;;;;5041658;28;20077;-72
2020/12/30 05:41:44;;;;;;;1.73;0.80;;;0.70;99.90;;;;;;5035564;28;20084;-73
2020/12/30 05:44:18;;;;;;;2.35;1.20;;;0.80;99.90;;;;;;5032574;28;20098;-73
2020/12/30 05:46:44;;;;;;;2.47;1.33;;;0.70;99.90;;;;;;5035325;28;20168;-74
2020/12/30 05:49:09;;;;;;;1.58;1.20;;;0.60;99.90;;;;;;5041908;28;20188;-73
2020/12/30 05:51:35;;;;;;;2.78;1.65;;;0.70;99.90;;;;;;5041511;28;20082;-73
2020/12/30 05:54:09;;;;;;;1.38;0.60;;;0.80;99.90;;;;;;5039195;28;20094;-73
2020/12/30 05:56:36;;;;;;;1.60;0.87;;;0.50;99.90;;;;;;5039125;28;20469;-74
2020/12/30 05:59:03;;;;;;;1.70;0.63;;;0.30;99.90;;;;;;5040475;28;20077;-72
2020/12/30 06:01:28;;;;;;;1.15;1.00;;;0.20;99.90;;;;;;5035770;28;20599;-74
2020/12/30 06:03:55;;;;;;;0.90;0.70;;;0.20;99.90;;;;;;5041882;28;20102;-75
2020/12/30 06:06:21;;;;;;;0.95;0.80;;;0.40;99.90;;;;;;5036755;28;20105;-73
2020/12/30 06:08:51;;;;;;;1.45;0.60;;;0.30;99.90;;;;;;5036935;28;20135;-74
2020/12/30 06:11:30;;;;;;;0.80;0.60;;;0.40;99.90;;;;;;5049427;28;20090;-74
2020/12/30 06:14:04;;;;;;;1.70;0.70;;;0.30;99.90;;;;;;5035362;28;20093;-73
2020/12/30 06:16:30;;;;;;;1.37;0.60;;;0.10;99.90;;;;;;5039355;28;20080;-72
2020/12/30 06:18:56;;;;;;;0.60;0.50;;;0.10;99.90;;;;;;5044078;28;20077;-72
2020/12/30 06:21:24;;;;;;;1.00;0.40;;;0.20;99.90;;;;;;5039396;28;20077;-73
2020/12/30 06:23:55;;;;;;;1.00;0.50;;;0.20;99.90;;;;;;5033251;28;20090;-73
2020/12/30 06:26:26;;;;;;;0.70;0.50;;;0.20;99.90;;;;;;5043891;28;20090;-73
2020/12/30 06:28:54;;;;;;;2.25;0.73;;;0.10;99.90;;;;;;5038964;28;20116;-73
2020/12/30 06:31:20;;;;;;;1.55;0.88;;;0.20;99.90;;;;;;5033567;28;20534;-73
2020/12/30 06:33:45;;;;;;;2.13;0.68;;;0.10;99.90;;;;;;5038122;28;20264;-73
2020/12/30 06:36:11;;;;;;;0.90;0.50;;;0.10;99.90;;;;;;5038365;28;20077;-72
2020/12/30 06:38:41;;;;;;;1.13;0.73;;;0.20;99.90;;;;;;5037779;28;20119;-73
2020/12/30 06:41:08;;;;;;;1.35;0.60;;;0.30;99.90;;;;;;5032917;28;20078;-73
2020/12/30 06:43:46;;;;;;;2.42;0.82;;;0.30;99.90;;;;;;5030670;28;20192;-76
2020/12/30 06:46:13;;;;;;;0.65;0.57;;;0.30;99.90;;;;;;5031625;28;20086;-72
2020/12/30 06:48:59;;;;;;;1.50;0.70;;;0.10;99.90;;;;;;5035067;28;20110;-72
2020/12/30 06:51:26;;;;;;;0.73;0.60;;;0.10;99.90;;;;;;5037965;28;20066;-73
2020/12/30 06:53:55;;;;;;;0.82;0.63;;;0.00;99.90;;;;;;5032629;28;20090;-73
2020/12/30 06:56:40;;;;;;;0.70;0.70;;;0.00;99.90;;;;;;5038256;28;20152;-72
2020/12/30 06:59:06;;;;;;;5.03;0.80;;;0.10;99.90;;;;;;5035800;28;20086;-74
2020/12/30 07:02:00;;;;;;;0.85;0.70;;;0.00;99.90;;;;;;5035736;28;20078;-73
2020/12/30 07:04:34;;;;;;;1.48;0.70;;;0.00;99.90;;;;;;5034152;28;20136;-74
2020/12/30 07:07:00;;;;;;;1.63;0.85;;;-0.10;99.90;;;;;;5036663;28;20065;-72
2020/12/30 07:09:34;;;;;;;1.65;0.98;;;0.10;99.90;;;;;;5041806;28;20078;-73
2020/12/30 07:12:02;;;;;;;2.40;1.13;;;0.10;99.90;;;;;;5032711;28;20070;-74
2020/12/30 07:14:33;;;;;;;3.13;0.85;;;0.20;99.90;;;;;;5025110;28;20486;-71
2020/12/30 07:17:03;;;;;;;1.70;0.90;;;0.50;99.90;;;;;;5035453;28;20089;-74
2020/12/30 07:19:30;;;;;;;2.47;0.77;;;0.30;99.90;;;;;;5031832;28;20127;-74
2020/12/30 07:22:03;;;;;;;1.73;0.88;;;0.20;99.90;;;;;;5029980;28;20947;-73
2020/12/30 07:24:40;;;;;;;1.75;0.75;;;0.00;99.90;;;;;;5028238;28;20148;-73
2020/12/30 07:27:11;;;;;;;1.35;1.20;;;-0.10;99.90;;;;;;5041120;28;20073;-74
2020/12/30 07:29:37;;;;;;;1.70;0.90;;;0.00;99.90;;;;;;5038205;28;20081;-73
2020/12/30 07:32:04;;;;;;;1.77;0.90;;;0.30;99.90;;;;;;5035370;28;20080;-73
2020/12/30 07:34:32;;;;;;;2.28;1.25;;;0.40;99.90;;;;;;5030940;28;20109;-73
2020/12/30 07:36:58;;;;;;;4.63;2.13;;;0.50;99.90;;;;;;5031195;28;20081;-73
2020/12/30 07:39:29;;;;;;;2.63;2.03;;;0.30;99.90;;;;;;5035616;28;20532;-74
2020/12/30 07:41:56;;;;;;;4.28;2.83;;;0.60;99.90;;;;;;5026971;28;20116;-73
2020/12/30 07:44:22;;;;;;;3.45;2.85;;;0.50;99.90;;;;;;5029080;28;20167;-74
2020/12/30 07:46:48;;;;;;;4.43;3.35;;;0.30;99.90;;;;;;5038804;28;20577;-73
2020/12/30 07:49:21;;;;;;;4.95;3.70;;;0.20;99.90;;;;;;5037196;28;20077;-75
2020/12/30 07:51:49;;;;;;;3.80;3.50;;;0.10;99.90;;;;;;5032681;28;20078;-73
2020/12/30 07:54:16;;;;;;;6.30;4.07;;;0.00;99.90;;;;;;5036538;28;20108;-71
2020/12/30 07:56:42;;;;;;;5.35;3.55;;;0.10;99.90;;;;;;5029058;28;20080;-72
2020/12/30 07:59:08;;;;;;;2.03;1.83;;;0.30;99.90;;;;;;5041853;28;20171;-71
2020/12/30 08:01:34;;;;;;;1.63;1.52;;;0.20;99.90;;;;;;5036734;28;20166;-71
2020/12/30 08:04:07;;;;;;;3.20;1.85;;;0.10;99.90;;;;;;5044275;28;20101;-70
2020/12/30 08:06:46;;;;;;;3.75;2.20;;;0.20;99.90;;;;;;5039441;28;20512;-71
2020/12/30 08:09:15;;;;;;;6.05;1.70;;;0.40;99.90;;;;;;5035034;28;20081;-71
2020/12/30 08:11:54;;;;;;;1.38;1.27;;;0.40;99.90;;;;;;5045558;28;20147;-72
2020/12/30 08:14:21;;;;;;;2.70;1.73;;;0.20;99.90;;;;;;5060791;28;20159;-72
2020/12/30 08:16:53;;;;;;;3.33;1.88;;;-0.10;99.90;;;;;;5045680;28;20077;-72
2020/12/30 08:19:30;;;;;;;1.83;1.27;;;-0.10;99.90;;;;;;5047285;28;20464;-72
2020/12/30 08:22:01;;;;;;;4.47;2.42;;;-0.10;99.90;;;;;;5046328;28;20077;-72
2020/12/30 08:24:29;;;;;;;1.95;1.50;;;0.10;99.90;;;;;;5046083;28;20140;-72
2020/12/30 08:26:55;;;;;;;3.20;1.73;;;0.10;99.90;;;;;;5050680;28;20073;-73
2020/12/30 08:29:20;;;;;;;2.45;2.00;;;0.10;99.90;;;;;;5043346;28;20148;-72
2020/12/30 08:31:51;;;;;;;2.33;1.63;;;0.20;99.90;;;;;;5037692;28;20117;-73
2020/12/30 08:34:23;;;;;;;2.00;1.55;;;0.10;99.90;;;;;;5043618;28;20639;-72
2020/12/30 08:37:01;;;;;;;3.55;1.85;;;0.10;99.90;;;;;;5040307;28;20100;-72
2020/12/30 08:39:28;;;;;;;4.22;2.30;;;0.20;99.90;;;;;;5059588;28;20089;-73
2020/12/30 08:41:59;;;;;;;3.22;2.08;;;0.20;99.90;;;;;;5037912;28;20565;-73
2020/12/30 08:44:26;;;;;;;2.55;1.60;;;0.20;99.90;;;;;;5044947;28;20139;-72
2020/12/30 08:46:56;;;;;;;4.47;2.10;;;0.30;99.90;;;;;;5038723;28;20512;-72
2020/12/30 08:49:22;;;;;;;2.83;1.73;;;0.30;99.90;;;;;;5041148;28;20601;-73
2020/12/30 08:51:49;;;;;;;3.22;2.28;;;0.20;99.90;;;;;;5045249;28;20119;-74
2020/12/30 08:54:16;;;;;;;2.83;2.15;;;0.50;99.90;;;;;;5038272;28;20094;-72
2020/12/30 08:56:43;;;;;;;2.92;1.88;;;0.50;99.90;;;;;;5042242;28;20116;-72
2020/12/30 08:59:09;;;;;;;5.35;1.88;;;0.40;99.90;;;;;;5044969;28;20081;-72
2020/12/30 09:01:35;;;;;;;1.65;1.40;;;0.50;99.90;;;;;;5043870;28;20070;-74
2020/12/30 09:04:11;;;;;;;2.10;1.70;;;0.50;99.90;;;;;;5043171;28;20540;-73
2020/12/30 09:06:37;;;;;;;2.70;2.10;;;0.50;99.90;;;;;;5042136;28;20083;-73
2020/12/30 09:09:10;;;;;;;5.55;2.92;;;0.40;99.90;;;;;;5045257;28;20160;-74
2020/12/30 09:11:38;;;;;;;10.63;3.88;;;0.50;99.90;;;;;;5041305;28;20154;-74
2020/12/30 09:14:18;;;;;;;6.47;3.72;;;0.50;99.90;;;;;;5042129;28;20090;-72
2020/12/30 09:17:13;;;;;;;7.20;3.90;;;0.50;99.90;;;;;;5038190;28;20070;-74
2020/12/30 09:19:38;;;;;;;9.83;4.40;;;0.60;99.90;;;;;;5036091;28;20089;-74
2020/12/30 09:22:07;;;;;;;7.85;3.70;;;0.60;99.90;;;;;;5041580;28;20082;-73
2020/12/30 09:24:40;;;;;;;5.72;3.85;;;0.70;99.90;;;;;;5042772;28;20101;-74
2020/12/30 09:27:21;;;;;;;6.47;3.78;;;0.70;99.90;;;;;;5033071;28;20066;-74
2020/12/30 09:30:09;;;;;;;8.88;3.90;;;0.80;99.90;;;;;;5037421;28;20073;-73
2020/12/30 09:32:35;;;;;;;7.35;3.55;;;0.80;99.90;;;;;;5042780;28;20070;-75
2020/12/30 09:35:02;;;;;;;5.82;3.45;;;0.80;99.90;;;;;;5040528;28;20147;-73
2020/12/30 09:37:27;;;;;;;6.78;4.03;;;0.90;99.90;;;;;;5041536;28;20117;-74
2020/12/30 09:40:07;;;;;;;7.85;3.97;;;0.90;99.90;;;;;;5042837;28;20143;-73
2020/12/30 09:42:34;;;;;;;8.93;4.30;;;1.10;99.90;;;;;;5050374;28;20164;-73
2020/12/30 09:45:00;;;;;;;5.45;3.47;;;1.20;99.90;;;;;;5039288;28;20082;-75
2020/12/30 09:47:25;;;;;;;2.50;2.03;;;1.30;99.90;;;;;;5037921;28;20077;-73
2020/12/30 09:49:51;;;;;;;3.30;2.47;;;1.40;99.90;;;;;;5036270;28;20571;-74
2020/12/30 09:52:17;;;;;;;4.97;2.20;;;1.60;99.90;;;;;;5030294;28;20078;-72
2020/12/30 09:54:42;;;;;;;3.88;2.45;;;1.70;99.90;;;;;;5036818;28;20133;-73
2020/12/30 09:57:08;;;;;;;3.30;2.33;;;1.80;99.90;;;;;;5037723;28;20160;-73
2020/12/30 09:59:33;;;;;;;2.72;2.20;;;1.80;99.90;;;;;;5035785;28;20078;-74
2020/12/30 10:01:59;;;;;;;4.60;2.30;;;1.80;99.90;;;;;;5037466;28;20143;-74
2020/12/30 10:04:24;;;;;;;2.72;2.40;;;1.70;99.90;;;;;;5037377;28;20189;-72
2020/12/30 10:06:50;;;;;;;3.20;2.40;;;1.60;99.90;;;;;;5039416;28;20073;-72
2020/12/30 10:09:15;;;;;;;3.75;2.60;;;1.60;99.90;;;;;;5042767;28;20081;-75
2020/12/30 10:11:43;;;;;;;3.20;2.63;;;1.70;99.90;;;;;;5050728;28;20077;-76
2020/12/30 10:14:09;;;;;;;3.80;2.22;;;1.70;99.90;;;;;;5041893;28;20189;-72
2020/12/30 10:16:34;;;;;;;3.22;2.88;;;1.70;99.90;;;;;;5031258;28;20088;-73
2020/12/30 10:19:00;;;;;;;2.33;2.10;;;1.70;99.90;;;;;;5033889;28;20078;-72
2020/12/30 10:21:30;;;;;;;3.53;2.38;;;1.80;99.90;;;;;;5034611;28;20147;-73
2020/12/30 10:23:56;;;;;;;3.83;2.42;;;1.90;99.90;;;;;;5038660;28;20180;-73
2020/12/30 10:26:21;;;;;;;2.80;2.10;;;2.00;99.90;;;;;;5036101;28;20231;-73
2020/12/30 10:28:47;;;;;;;3.00;2.20;;;2.00;99.90;;;;;;5033638;28;20203;-72
2020/12/30 10:31:13;;;;;;;2.78;2.10;;;1.90;99.90;;;;;;5045350;28;20074;-72
2020/12/30 10:33:38;;;;;;;3.28;2.10;;;1.60;99.90;;;;;;5036819;28;20085;-72
2020/12/30 10:36:07;;;;;;;5.78;2.33;;;1.70;99.90;;;;;;5032354;28;20427;-74
2020/12/30 10:38:33;;;;;;;2.92;2.10;;;1.80;99.90;;;;;;5043344;28;20085;-72
2020/12/30 10:40:59;;;;;;;3.05;2.22;;;2.00;99.90;;;;;;5036572;28;20100;-72
2020/12/30 10:43:24;;;;;;;5.97;4.13;;;2.20;99.90;;;;;;5033775;28;20101;-72
2020/12/30 10:45:50;;;;;;;7.35;3.97;;;2.40;99.90;;;;;;5035260;28;20089;-73
2020/12/30 10:48:16;;;;;;;2.90;2.20;;;2.40;99.90;;;;;;5040624;28;20078;-71
2020/12/30 10:50:42;;;;;;;5.72;2.58;;;2.30;99.90;;;;;;5042393;28;20094;-73
2020/12/30 10:53:07;;;;;;;4.03;2.65;;;2.40;99.90;;;;;;5040256;28;20609;-72
2020/12/30 10:55:33;;;;;;;5.15;2.90;;;2.50;99.90;;;;;;5031928;28;20184;-72
2020/12/30 10:57:59;;;;;;;4.35;2.85;;;2.70;99.90;;;;;;5035596;28;20153;-72
2020/12/30 11:00:24;;;;;;;10.75;6.38;;;2.60;99.90;;;;;;5036363;28;20131;-72
2020/12/30 11:02:50;;;;;;;10.75;5.05;;;2.70;99.90;;;;;;5036102;28;20172;-72
2020/12/30 11:05:16;;;;;;;6.97;4.55;;;2.70;99.90;;;;;;5033609;28;20112;-73
2020/12/30 11:07:42;;;;;;;8.40;4.82;;;2.80;99.90;;;;;;5039434;28;20101;-73
2020/12/30 11:10:09;;;;;;;6.80;3.63;;;2.80;99.90;;;;;;5043061;28;20073;-72
2020/12/30 11:12:36;;;;;;;7.88;4.32;;;2.90;99.90;;;;;;5036371;28;20077;-71
2020/12/30 11:15:06;;;;;;;5.32;3.55;;;3.00;99.90;;;;;;5041956;28;20090;-73
2020/12/30 11:17:32;;;;;;;4.15;3.03;;;3.10;99.90;;;;;;5032493;28;20078;-73
2020/12/30 11:19:58;;;;;;;3.97;2.67;;;3.20;99.90;;;;;;5036307;28;20123;-72
2020/12/30 11:22:27;;;;;;;7.85;3.40;;;3.30;99.90;;;;;;5036222;28;20085;-72
2020/12/30 11:24:52;;;;;;;6.15;3.40;;;3.20;99.90;;;;;;5032427;28;20481;-72
2020/12/30 11:27:18;;;;;;;5.38;3.65;;;3.20;99.90;;;;;;5043442;28;20074;-73
2020/12/30 11:29:44;;;;;;;10.55;4.55;;;3.20;99.90;;;;;;5039793;28;20109;-73
2020/12/30 11:32:09;;;;;;;7.18;3.65;;;3.10;99.90;;;;;;5041338;28;20131;-73
2020/12/30 11:34:35;;;;;;;7.40;3.95;;;3.20;99.90;;;;;;5038578;28;20609;-73
2020/12/30 11:37:01;;;;;;;10.45;5.20;;;3.10;99.90;;;;;;5035459;28;20569;-73
2020/12/30 11:39:26;;;;;;;8.73;5.00;;;3.30;99.90;;;;;;5030732;28;20128;-74
2020/12/30 11:41:52;;;;;;;10.43;4.93;;;3.20;99.90;;;;;;5034435;28;20086;-72
2020/12/30 11:44:18;;;;;;;7.40;4.00;;;3.10;99.90;;;;;;5036800;28;20105;-73
2020/12/30 11:46:44;;;;;;;8.68;4.20;;;3.20;99.90;;;;;;5039293;28;20082;-72
2020/12/30 11:49:10;;;;;;;8.07;3.70;;;3.30;99.90;;;;;;5034928;28;20074;-74
2020/12/30 11:51:39;;;;;;;5.68;3.53;;;3.30;99.90;;;;;;5032314;28;20074;-72
2020/12/30 11:54:05;;;;;;;3.00;1.80;;;3.30;99.90;;;;;;5032375;28;20089;-72
2020/12/30 11:56:31;;;;;;;6.13;2.63;;;3.30;99.90;;;;;;5031104;28;20152;-74
2020/12/30 11:58:57;;;;;;;2.50;1.38;;;3.30;99.90;;;;;;5037138;28;20090;-72
2020/12/30 12:01:23;;;;;;;2.53;1.58;;;3.50;99.90;;;;;;5036876;28;20434;-73
2020/12/30 12:03:48;;;;;;;3.97;1.80;;;3.60;99.90;;;;;;5037541;28;20109;-73
2020/12/30 12:06:14;;;;;;;4.15;1.65;;;3.50;99.90;;;;;;5033425;28;20086;-74
2020/12/30 12:08:40;;;;;;;2.67;1.75;;;3.50;99.90;;;;;;5043430;28;20101;-72
2020/12/30 12:11:06;;;;;;;2.38;1.67;;;3.50;99.90;;;;;;5040564;28;20096;-73
2020/12/30 12:13:32;;;;;;;5.35;2.67;;;3.40;99.90;;;;;;5038055;28;20101;-74
2020/12/30 12:15:57;;;;;;;5.78;2.13;;;3.50;99.90;;;;;;5033792;28;20096;-73
2020/12/30 12:18:23;;;;;;;4.28;2.28;;;3.50;99.90;;;;;;5039247;28;20082;-74
2020/12/30 12:20:49;;;;;;;4.40;2.33;;;3.60;99.90;;;;;;5041924;28;20085;-73
2020/12/30 12:23:14;;;;;;;5.40;3.00;;;3.70;99.90;;;;;;5039443;28;20159;-74
2020/12/30 12:25:43;;;;;;;7.85;3.15;;;3.70;99.90;;;;;;5035963;28;20710;-75
2020/12/30 12:28:09;;;;;;;4.15;1.90;;;3.70;99.90;;;;;;5042528;28;20596;-73
2020/12/30 12:30:34;;;;;;;2.40;1.67;;;3.70;99.90;;;;;;5041080;28;20084;-72
2020/12/30 12:33:00;;;;;;;2.92;2.13;;;3.90;99.90;;;;;;5041021;28;20073;-73
2020/12/30 12:35:26;;;;;;;6.35;1.95;;;3.90;99.90;;;;;;5042776;28;20641;-73
2020/12/30 12:38:08;;;;;;;2.28;1.25;;;4.00;99.90;;;;;;5041803;28;20081;-73
2020/12/30 12:40:35;;;;;;;2.25;1.50;;;4.10;99.90;;;;;;5039600;28;20078;-72
2020/12/30 12:43:01;;;;;;;3.05;1.52;;;4.00;99.90;;;;;;5038360;28;20224;-72
2020/12/30 12:45:29;;;;;;;4.30;1.42;;;4.00;99.90;;;;;;5034026;28;20491;-74
2020/12/30 12:47:54;;;;;;;2.55;1.60;;;4.20;99.90;;;;;;5034133;28;20084;-74
2020/12/30 12:50:20;;;;;;;3.22;2.08;;;4.00;99.90;;;;;;5031207;28;20081;-73
2020/12/30 12:52:48;;;;;;;3.47;2.00;;;4.00;99.90;;;;;;5038808;28;20094;-74
2020/12/30 12:55:14;;;;;;;2.75;1.90;;;4.00;99.90;;;;;;5033568;28;20180;-73
2020/12/30 12:57:43;;;;;;;3.40;1.70;;;4.10;99.90;;;;;;5033336;28;20172;-74
2020/12/30 13:00:08;;;;;;;3.53;2.22;;;4.10;99.90;;;;;;5030550;28;20082;-71